Terminal Aerodrome Forecast
Issued by NWS

Home | Current Version | Previous Version | Text Only | Print | Product List | Glossary On
Versions: 1 2 3 4 5 6 7 8 9 10 11 12 13 14 15 16 17 18 19 20 21
067
FTUS46 KHNX 032329
TAFVIS
TAF
KVIS 032329Z 0400/0424 VRB03KT P6SM SKC
     FM040300 00000KT 6SM HZ SKC
     FM040900 00000KT 3SM BR SKC
      TEMPO 0413/0417 2SM BR
     FM041900 31003KT 6SM HZ SKC=

USA.gov is the U.S. government's official web portal to all federal, state and local government web resources and services.